createdAt,value
2017-12-23T00:01:42.790Z,5.57
2017-12-23T00:04:10.587Z,5.56
2017-12-23T00:06:38.322Z,5.57
2017-12-23T00:09:06.030Z,5.58
2017-12-23T00:11:33.707Z,5.60
2017-12-23T00:14:01.369Z,5.63
2017-12-23T00:18:56.870Z,5.59
2017-12-23T00:21:24.608Z,5.61
2017-12-23T00:23:52.297Z,5.62
2017-12-23T00:26:20.036Z,5.60
2017-12-23T00:28:47.733Z,5.62
2017-12-23T00:31:15.394Z,5.57
2017-12-23T00:33:43.023Z,5.59
2017-12-23T00:36:10.681Z,5.57
2017-12-23T00:38:38.303Z,5.56
2017-12-23T00:41:05.987Z,5.55
2017-12-23T00:43:33.617Z,5.56
2017-12-23T00:46:01.285Z,5.56
2017-12-23T00:48:28.983Z,5.54
2017-12-23T00:50:56.664Z,5.53
2017-12-23T00:53:24.355Z,5.52
2017-12-23T00:55:52.101Z,5.51
2017-12-23T00:58:19.787Z,5.51
2017-12-23T01:00:47.559Z,5.48
2017-12-23T01:03:15.226Z,5.52
2017-12-23T01:05:42.963Z,5.52
2017-12-23T01:08:10.645Z,5.50
2017-12-23T01:10:38.379Z,5.48
2017-12-23T01:13:05.997Z,5.50
2017-12-23T01:15:33.729Z,5.50
2017-12-23T01:18:01.400Z,5.48
2017-12-23T01:20:29.127Z,5.45
2017-12-23T01:22:56.751Z,5.47
2017-12-23T01:25:24.484Z,5.47
2017-12-23T01:27:52.176Z,5.44
2017-12-23T01:30:19.894Z,5.43
2017-12-23T01:32:47.573Z,5.42
2017-12-23T01:35:15.316Z,5.40
2017-12-23T01:37:42.992Z,5.37
2017-12-23T01:40:10.728Z,5.33
2017-12-23T01:42:38.408Z,5.30
2017-12-23T01:45:06.171Z,5.30
2017-12-23T01:47:33.854Z,5.27
2017-12-23T01:50:01.540Z,5.27
2017-12-23T01:52:29.208Z,5.26
2017-12-23T01:54:56.836Z,5.22
2017-12-23T01:57:24.567Z,5.23
2017-12-23T01:59:52.196Z,5.20
2017-12-23T02:02:19.968Z,5.20
2017-12-23T02:04:47.685Z,5.17
2017-12-23T02:07:15.399Z,5.13
2017-12-23T02:09:43.085Z,5.01
2017-12-23T02:12:10.827Z,4.93
2017-12-23T02:14:38.508Z,4.92
2017-12-23T02:17:06.184Z,4.91
2017-12-23T02:19:33.820Z,4.94
2017-12-23T02:22:01.482Z,4.93
2017-12-23T02:24:29.108Z,4.92
2017-12-23T02:26:56.789Z,4.90
2017-12-23T02:29:24.420Z,4.92
2017-12-23T02:31:52.093Z,4.94
2017-12-23T02:34:19.781Z,4.96
2017-12-23T02:36:47.519Z,4.92
2017-12-23T02:39:15.205Z,4.92
2017-12-23T02:41:42.886Z,4.92
2017-12-23T02:44:10.594Z,4.87
2017-12-23T02:46:38.263Z,4.82
2017-12-23T02:49:06.003Z,4.85
2017-12-23T02:51:33.726Z,4.81
2017-12-23T02:54:01.352Z,4.83
2017-12-23T02:56:29.083Z,4.81
2017-12-23T02:58:56.709Z,4.79
2017-12-23T03:01:24.488Z,4.76
2017-12-23T03:03:52.140Z,4.75
2017-12-23T03:06:19.898Z,4.75
2017-12-23T03:08:47.525Z,4.76
2017-12-23T03:11:15.256Z,4.78
2017-12-23T03:13:42.948Z,4.74
2017-12-23T03:16:10.678Z,4.68
2017-12-23T03:18:38.389Z,4.67
2017-12-23T03:21:06.105Z,4.65
2017-12-23T03:23:33.800Z,4.67
2017-12-23T03:26:01.416Z,4.69
2017-12-23T03:28:29.139Z,4.71
2017-12-23T03:30:56.804Z,4.75
2017-12-23T03:33:24.525Z,4.77
2017-12-23T03:35:52.147Z,4.78
2017-12-23T03:38:19.880Z,4.80
2017-12-23T03:40:47.570Z,4.82
2017-12-23T03:43:15.320Z,4.85
2017-12-23T03:45:43.010Z,4.84
2017-12-23T03:48:10.740Z,4.90
2017-12-23T03:50:38.358Z,4.90
2017-12-23T03:53:06.086Z,4.92
2017-12-23T03:55:33.773Z,4.92
2017-12-23T03:58:01.506Z,4.95
2017-12-23T04:00:29.194Z,4.94
2017-12-23T04:02:56.854Z,4.96
2017-12-23T04:05:24.537Z,4.98
2017-12-23T04:07:52.263Z,5.03
2017-12-23T04:10:19.947Z,5.02
2017-12-23T04:12:47.695Z,5.04
2017-12-23T04:15:15.324Z,5.11
2017-12-23T04:17:43.059Z,5.15
2017-12-23T04:20:10.763Z,5.12
2017-12-23T04:22:38.436Z,5.11
2017-12-23T04:25:06.131Z,5.10
2017-12-23T04:27:33.881Z,5.09
2017-12-23T04:30:01.518Z,5.10
2017-12-23T04:32:29.241Z,5.09
2017-12-23T04:34:56.870Z,5.06
2017-12-23T04:37:24.610Z,5.07
2017-12-23T04:39:52.239Z,5.08
2017-12-23T04:42:19.963Z,5.09
2017-12-23T04:44:47.648Z,5.05
2017-12-23T04:47:15.382Z,5.05
2017-12-23T04:49:43.107Z,5.10
2017-12-23T04:52:10.841Z,5.08
2017-12-23T04:54:38.540Z,5.09
2017-12-23T04:57:06.270Z,5.09
2017-12-23T04:59:33.954Z,5.09
2017-12-23T05:02:01.623Z,5.12
2017-12-23T05:04:29.299Z,5.13
2017-12-23T05:06:56.926Z,5.16
2017-12-23T05:09:24.660Z,5.21
2017-12-23T05:11:52.275Z,5.21
2017-12-23T05:14:20.019Z,5.23
2017-12-23T05:16:47.707Z,5.26
2017-12-23T05:19:15.459Z,5.27
2017-12-23T05:21:43.081Z,5.29
2017-12-23T05:24:10.811Z,5.31
2017-12-23T05:26:38.505Z,5.33
2017-12-23T05:29:06.234Z,5.35
2017-12-23T05:31:33.914Z,5.38
2017-12-23T05:34:01.585Z,5.39
2017-12-23T05:36:29.269Z,5.41
2017-12-23T05:38:56.937Z,5.42
2017-12-23T05:41:24.616Z,5.49
2017-12-23T05:43:52.288Z,5.48
2017-12-23T05:46:19.978Z,5.47
2017-12-23T05:48:47.695Z,5.53
2017-12-23T05:51:15.323Z,5.54
2017-12-23T05:53:43.000Z,5.53
2017-12-23T05:56:10.620Z,5.52
2017-12-23T05:58:38.395Z,5.53
2017-12-23T06:01:06.131Z,5.55
2017-12-23T06:03:33.869Z,5.60
2017-12-23T06:06:01.499Z,5.61
2017-12-23T06:08:29.229Z,5.64
2017-12-23T06:10:56.844Z,5.65
2017-12-23T06:13:24.564Z,5.67
2017-12-23T06:15:52.264Z,5.68
2017-12-23T06:18:20.008Z,5.67
2017-12-23T06:20:47.705Z,5.68
2017-12-23T06:23:15.441Z,5.78
2017-12-23T06:25:43.127Z,5.75
2017-12-23T06:28:10.799Z,5.78
2017-12-23T06:30:38.437Z,5.77
2017-12-23T06:33:06.183Z,5.81
2017-12-23T06:35:33.864Z,5.77
2017-12-23T06:38:01.591Z,5.81
2017-12-23T06:40:29.277Z,5.83
2017-12-23T06:42:57.003Z,5.83
2017-12-23T06:45:24.706Z,5.88
2017-12-23T06:47:52.411Z,5.89
2017-12-23T06:50:20.145Z,5.88
2017-12-23T06:52:47.834Z,5.94
2017-12-23T06:55:15.572Z,5.95
2017-12-23T06:57:43.277Z,5.92
2017-12-23T07:00:11.006Z,5.90
2017-12-23T07:02:38.743Z,5.94
2017-12-23T07:05:06.424Z,5.97
2017-12-23T07:07:34.044Z,5.97
2017-12-23T07:10:01.714Z,5.96
2017-12-23T07:12:29.406Z,6.01
2017-12-23T07:14:57.204Z,6.03
2017-12-23T07:17:24.892Z,6.01
2017-12-23T07:19:52.572Z,6.06
2017-12-23T07:22:20.258Z,6.10
2017-12-23T07:24:47.989Z,6.08
2017-12-23T07:27:15.676Z,6.10
2017-12-23T07:29:43.386Z,6.13
2017-12-23T07:32:11.089Z,6.17
2017-12-23T07:34:38.832Z,6.23
2017-12-23T07:37:06.516Z,6.27
2017-12-23T07:39:34.276Z,6.25
2017-12-23T07:42:01.967Z,6.27
2017-12-23T07:44:29.695Z,6.28
2017-12-23T07:46:57.439Z,6.32
2017-12-23T07:49:25.178Z,6.36
2017-12-23T07:51:52.871Z,6.38
2017-12-23T07:54:20.600Z,6.39
2017-12-23T07:56:48.298Z,6.41
2017-12-23T07:59:16.017Z,6.41
2017-12-23T08:01:43.758Z,6.43
2017-12-23T08:04:11.494Z,6.47
2017-12-23T08:06:39.198Z,6.51
2017-12-23T08:09:06.868Z,6.54
2017-12-23T08:11:34.555Z,6.53
2017-12-23T08:14:02.319Z,6.54
2017-12-23T08:16:29.940Z,6.61
2017-12-23T08:18:57.628Z,6.61
2017-12-23T08:21:25.340Z,6.63
2017-12-23T08:23:53.040Z,6.67
2017-12-23T08:26:20.723Z,6.70
2017-12-23T08:28:48.422Z,6.70
2017-12-23T08:31:16.174Z,6.74
2017-12-23T08:33:43.862Z,6.78
2017-12-23T08:36:11.625Z,6.80
2017-12-23T08:38:39.339Z,6.80
2017-12-23T08:41:07.024Z,6.85
2017-12-23T08:43:34.751Z,6.85
2017-12-23T08:46:02.548Z,6.88
2017-12-23T08:48:30.229Z,6.91
2017-12-23T08:50:57.967Z,6.92
2017-12-23T08:53:25.671Z,6.94
2017-12-23T08:55:53.399Z,7.00
2017-12-23T08:58:21.084Z,7.08
2017-12-23T09:00:48.825Z,7.07
2017-12-23T09:03:16.584Z,7.08
2017-12-23T09:05:44.266Z,7.09
2017-12-23T09:08:19.255Z,7.13
2017-12-23T09:10:46.927Z,7.18
2017-12-23T09:13:14.720Z,7.21
2017-12-23T09:15:42.419Z,7.23
2017-12-23T09:18:10.047Z,7.25
2017-12-23T09:20:37.785Z,7.26
2017-12-23T09:23:05.466Z,7.30
2017-12-23T09:25:33.143Z,7.34
2017-12-23T09:28:00.771Z,7.35
2017-12-23T09:30:28.447Z,7.35
2017-12-23T09:32:56.142Z,7.40
2017-12-23T09:35:23.885Z,7.45
2017-12-23T09:37:51.592Z,7.44
2017-12-23T09:40:19.327Z,7.47
2017-12-23T09:42:46.955Z,7.47
2017-12-23T09:45:14.623Z,7.50
2017-12-23T09:47:42.312Z,7.51
2017-12-23T09:50:10.029Z,7.55
2017-12-23T09:52:37.656Z,7.58
2017-12-23T09:55:05.380Z,7.62
2017-12-23T09:57:33.078Z,7.66
2017-12-23T10:00:00.760Z,7.68
2017-12-23T10:02:28.496Z,7.71
2017-12-23T10:04:56.279Z,7.71
2017-12-23T10:07:23.916Z,7.72
2017-12-23T10:09:51.589Z,7.76
2017-12-23T10:12:19.330Z,7.77
2017-12-23T10:14:47.023Z,7.78
2017-12-23T10:17:14.759Z,7.83
2017-12-23T10:19:44.680Z,7.83
2017-12-23T10:22:14.856Z,7.84
2017-12-23T10:24:43.264Z,7.83
2017-12-23T10:27:11.047Z,7.83
2017-12-23T10:29:38.677Z,7.84
2017-12-23T10:32:06.400Z,7.84
2017-12-23T10:34:34.022Z,7.88
2017-12-23T10:37:01.699Z,7.90
2017-12-23T10:39:29.332Z,7.93
2017-12-23T10:41:57.086Z,7.96
2017-12-23T10:44:24.766Z,8.02
2017-12-23T10:46:52.431Z,8.01
2017-12-23T10:49:20.125Z,8.01
2017-12-23T10:51:47.803Z,8.03
2017-12-23T10:54:15.503Z,8.05
2017-12-23T10:56:43.291Z,8.04
2017-12-23T10:59:10.971Z,8.06
2017-12-23T11:01:38.649Z,8.07
2017-12-23T11:04:06.270Z,8.11
2017-12-23T11:06:34.046Z,8.17
2017-12-23T11:09:01.733Z,8.16
2017-12-23T11:11:29.463Z,8.18
2017-12-23T11:13:57.147Z,8.20
2017-12-23T11:16:24.833Z,8.23
2017-12-23T11:18:52.477Z,8.24
2017-12-23T11:21:20.217Z,8.23
2017-12-23T11:23:47.832Z,8.24
2017-12-23T11:26:15.570Z,8.28
2017-12-23T11:28:43.185Z,8.29
2017-12-23T11:31:10.856Z,8.29
2017-12-23T11:33:38.485Z,8.31
2017-12-23T11:36:06.152Z,8.31
2017-12-23T11:38:33.910Z,8.31
2017-12-23T11:41:01.585Z,8.30
2017-12-23T11:43:29.223Z,8.29
2017-12-23T11:45:56.907Z,8.31
2017-12-23T11:48:24.600Z,8.33
2017-12-23T11:50:52.279Z,8.35
2017-12-23T11:53:19.907Z,8.34
2017-12-23T11:55:47.548Z,8.38
2017-12-23T11:58:15.340Z,8.40
2017-12-23T12:00:43.012Z,8.44
2017-12-23T12:03:10.700Z,8.37
2017-12-23T12:05:38.345Z,8.37
2017-12-23T12:08:06.009Z,8.38
2017-12-23T12:10:33.652Z,8.41
2017-12-23T12:13:01.324Z,8.42
2017-12-23T12:15:28.964Z,8.42
2017-12-23T12:17:56.701Z,8.41
2017-12-23T12:20:24.383Z,8.42
2017-12-23T12:22:52.049Z,8.43
2017-12-23T12:25:19.753Z,8.46
2017-12-23T12:27:47.477Z,8.48
2017-12-23T12:30:15.143Z,8.49
2017-12-23T12:32:42.875Z,8.48
2017-12-23T12:35:10.687Z,8.47
2017-12-23T12:37:38.427Z,8.48
2017-12-23T12:40:06.117Z,8.48
2017-12-23T12:42:33.859Z,8.48
2017-12-23T12:45:01.501Z,8.45
2017-12-23T12:47:29.189Z,8.46
2017-12-23T12:49:56.822Z,8.46
2017-12-23T12:52:24.508Z,8.47
2017-12-23T12:54:52.196Z,8.49
2017-12-23T12:57:19.880Z,8.52
2017-12-23T12:59:47.566Z,8.52
2017-12-23T13:02:15.260Z,8.49
2017-12-23T13:04:42.886Z,8.52
2017-12-23T13:07:10.642Z,8.54
2017-12-23T13:09:38.346Z,8.54
2017-12-23T13:12:06.012Z,8.56
2017-12-23T13:14:33.660Z,8.57
2017-12-23T13:17:01.332Z,8.57
2017-12-23T13:19:28.952Z,8.56
2017-12-23T13:21:56.650Z,8.57
2017-12-23T13:24:24.279Z,8.59
2017-12-23T13:26:52.009Z,8.60
2017-12-23T13:29:19.637Z,8.64
2017-12-23T13:31:47.338Z,8.67
2017-12-23T13:34:14.970Z,8.71
2017-12-23T13:36:42.603Z,8.73
2017-12-23T13:39:10.280Z,8.75
2017-12-23T13:41:37.929Z,8.81
2017-12-23T13:44:05.616Z,8.84
2017-12-23T13:46:33.256Z,8.82
2017-12-23T13:49:00.944Z,8.86
2017-12-23T13:51:28.572Z,8.84
2017-12-23T13:53:56.261Z,8.83
2017-12-23T13:56:23.950Z,8.83
2017-12-23T13:58:51.648Z,8.82
2017-12-23T14:01:19.383Z,8.85
2017-12-23T14:03:47.213Z,8.87
2017-12-23T14:06:14.921Z,8.84
2017-12-23T14:08:42.708Z,8.84
2017-12-23T14:11:10.404Z,8.85
2017-12-23T14:13:38.105Z,8.87
2017-12-23T14:16:05.745Z,8.85
2017-12-23T14:18:33.435Z,8.83
2017-12-23T14:21:01.052Z,8.80
2017-12-23T14:23:28.732Z,8.83
2017-12-23T14:25:56.421Z,8.80
2017-12-23T14:28:24.104Z,8.80
2017-12-23T14:30:51.791Z,8.76
2017-12-23T14:33:19.460Z,8.76
2017-12-23T14:35:47.108Z,8.76
2017-12-23T14:38:14.859Z,8.74
2017-12-23T14:40:42.512Z,8.77
2017-12-23T14:43:10.204Z,8.73
2017-12-23T14:45:37.882Z,8.77
2017-12-23T14:48:05.647Z,8.73
2017-12-23T14:50:33.272Z,8.71
2017-12-23T14:53:01.008Z,8.68
2017-12-23T14:55:28.642Z,8.65
2017-12-23T14:57:56.318Z,8.67
2017-12-23T15:00:23.978Z,8.65
2017-12-23T15:02:51.662Z,8.63
2017-12-23T15:05:19.306Z,8.59
2017-12-23T15:07:46.982Z,8.59
2017-12-23T15:10:14.671Z,8.60
2017-12-23T15:12:42.446Z,8.57
2017-12-23T15:15:10.168Z,8.58
2017-12-23T15:17:37.831Z,8.57
2017-12-23T15:20:05.501Z,8.61
2017-12-23T15:22:33.143Z,8.64
2017-12-23T15:25:00.932Z,8.60
2017-12-23T15:27:28.705Z,8.58
2017-12-23T15:29:56.388Z,8.61
2017-12-23T15:32:24.006Z,8.61
2017-12-23T15:34:51.685Z,8.61
2017-12-23T15:37:19.373Z,8.59
2017-12-23T15:39:47.136Z,8.61
2017-12-23T15:42:14.772Z,8.57
2017-12-23T15:44:42.502Z,8.57
2017-12-23T15:47:10.195Z,8.58
2017-12-23T15:49:37.959Z,8.53
2017-12-23T15:52:05.692Z,8.61
2017-12-23T15:54:33.432Z,8.56
2017-12-23T15:57:01.135Z,8.53
2017-12-23T15:59:28.858Z,8.52
2017-12-23T16:01:56.606Z,8.51
2017-12-23T16:04:24.376Z,8.55
2017-12-23T16:06:52.012Z,8.57
2017-12-23T16:09:19.740Z,8.57
2017-12-23T16:11:47.439Z,8.56
2017-12-23T16:14:15.188Z,8.64
2017-12-23T16:16:42.926Z,8.67
2017-12-23T16:19:10.663Z,8.67
2017-12-23T16:21:38.314Z,8.67
2017-12-23T16:24:06.068Z,8.67
2017-12-23T16:26:33.771Z,8.69
2017-12-23T16:29:01.520Z,8.72
2017-12-23T16:31:29.263Z,8.73
2017-12-23T16:33:57.075Z,8.80
2017-12-23T16:36:24.814Z,8.77
2017-12-23T16:38:52.587Z,8.78
2017-12-23T16:41:20.287Z,8.82
2017-12-23T16:43:48.034Z,8.79
2017-12-23T16:46:15.670Z,8.83
2017-12-23T16:48:43.453Z,8.81
2017-12-23T16:51:11.105Z,8.83
2017-12-23T16:53:38.792Z,8.82
2017-12-23T16:56:06.540Z,8.84
2017-12-23T16:58:34.280Z,8.85
2017-12-23T17:01:02.024Z,8.87
2017-12-23T17:03:29.657Z,8.92
2017-12-23T17:05:57.403Z,8.88
2017-12-23T17:08:25.090Z,8.84
2017-12-23T17:10:52.849Z,8.86
2017-12-23T17:13:20.469Z,8.88
2017-12-23T17:15:48.219Z,8.89
2017-12-23T17:18:15.928Z,8.90
2017-12-23T17:20:43.612Z,8.89
2017-12-23T17:23:11.236Z,8.93
2017-12-23T17:25:39.039Z,8.99
2017-12-23T17:28:21.684Z,8.98
2017-12-23T17:30:49.473Z,9.10
2017-12-23T17:33:17.182Z,9.08
2017-12-23T17:35:44.975Z,9.05
2017-12-23T17:38:12.663Z,9.07
2017-12-23T17:40:40.356Z,9.06
2017-12-23T17:43:08.110Z,9.06
2017-12-23T17:45:35.780Z,9.06
2017-12-23T17:48:03.409Z,9.11
2017-12-23T17:50:31.124Z,9.12
2017-12-23T17:52:58.819Z,9.15
2017-12-23T17:55:26.540Z,9.16
2017-12-23T17:57:54.236Z,9.17
2017-12-23T18:00:21.970Z,9.19
2017-12-23T18:02:49.678Z,9.16
2017-12-23T18:05:17.424Z,9.18
2017-12-23T18:07:45.105Z,9.20
2017-12-23T18:10:12.778Z,9.18
2017-12-23T18:12:40.509Z,9.20
2017-12-23T18:15:08.233Z,9.22
2017-12-23T18:17:35.858Z,9.20
2017-12-23T18:20:03.670Z,9.20
2017-12-23T18:22:31.360Z,9.20
2017-12-23T18:24:59.082Z,9.24
2017-12-23T18:27:26.758Z,9.20
2017-12-23T18:29:54.546Z,9.22
2017-12-23T18:32:22.323Z,9.26
2017-12-23T18:34:50.042Z,9.28
2017-12-23T18:37:17.703Z,9.25
2017-12-23T18:39:45.446Z,9.27
2017-12-23T18:42:13.152Z,9.31
2017-12-23T18:44:40.810Z,9.32
2017-12-23T18:47:08.536Z,9.32
2017-12-23T18:49:36.261Z,9.32
2017-12-23T18:52:03.989Z,9.30
2017-12-23T18:54:31.686Z,9.34
2017-12-23T18:56:59.406Z,9.34
2017-12-23T18:59:27.082Z,9.38
2017-12-23T19:01:54.915Z,9.39
2017-12-23T19:04:22.603Z,9.40
2017-12-23T19:06:50.394Z,9.36
2017-12-23T19:09:18.144Z,9.37
2017-12-23T19:11:45.882Z,9.37
2017-12-23T19:14:13.630Z,9.32
2017-12-23T19:16:53.288Z,9.37
2017-12-23T19:19:20.985Z,9.34
2017-12-23T19:21:48.665Z,9.35
2017-12-23T19:24:16.355Z,9.37
2017-12-23T19:26:44.139Z,9.33
2017-12-23T19:29:11.835Z,9.40
2017-12-23T19:31:39.570Z,9.37
2017-12-23T19:34:07.293Z,9.32
2017-12-23T19:36:35.069Z,9.31
2017-12-23T19:39:02.890Z,9.34
2017-12-23T19:41:30.679Z,9.36
2017-12-23T19:43:58.313Z,9.36
2017-12-23T19:46:26.028Z,9.38
2017-12-23T19:48:53.706Z,9.37
2017-12-23T19:51:21.483Z,9.34
2017-12-23T19:53:49.149Z,9.35
2017-12-23T19:56:16.871Z,9.40
2017-12-23T19:58:44.543Z,9.40
2017-12-23T20:01:12.267Z,9.43
2017-12-23T20:03:39.941Z,9.40
2017-12-23T20:06:07.674Z,9.36
2017-12-23T20:08:35.298Z,9.32
2017-12-23T20:11:03.037Z,9.29
2017-12-23T20:13:31.021Z,9.42
2017-12-23T20:15:59.259Z,9.43
2017-12-23T20:18:26.943Z,9.42
2017-12-23T20:20:54.834Z,9.41
2017-12-23T20:23:22.570Z,9.39
2017-12-23T20:25:50.308Z,9.31
2017-12-23T20:28:18.008Z,9.33
2017-12-23T20:30:45.741Z,9.36
2017-12-23T20:33:13.448Z,9.35
2017-12-23T20:35:41.216Z,9.35
2017-12-23T20:38:08.955Z,9.37
2017-12-23T20:40:36.647Z,9.38
2017-12-23T20:43:04.442Z,9.37
2017-12-23T20:45:32.123Z,9.35
2017-12-23T20:47:59.903Z,9.38
2017-12-23T20:50:27.662Z,9.38
2017-12-23T20:52:55.457Z,9.37
2017-12-23T20:55:23.165Z,9.35
2017-12-23T20:57:50.968Z,9.36
2017-12-23T21:00:18.768Z,9.40
2017-12-23T21:02:46.604Z,9.39
2017-12-23T21:05:14.356Z,9.40
2017-12-23T21:07:42.137Z,9.42
2017-12-23T21:10:09.867Z,9.48
2017-12-23T21:12:37.612Z,9.42
2017-12-23T21:15:05.294Z,9.41
2017-12-23T21:17:33.093Z,9.40
2017-12-23T21:20:00.736Z,9.36
2017-12-23T21:22:28.524Z,9.42
2017-12-23T21:24:56.268Z,9.44
2017-12-23T21:27:24.056Z,9.42
2017-12-23T21:29:51.801Z,9.42
2017-12-23T21:32:19.529Z,9.42
2017-12-23T21:34:47.277Z,9.40
2017-12-23T21:37:15.024Z,9.40
2017-12-23T21:39:42.764Z,9.39
2017-12-23T21:42:10.501Z,9.42
2017-12-23T21:44:38.256Z,9.38
2017-12-23T21:47:06.040Z,9.41
2017-12-23T21:49:33.796Z,9.41
2017-12-23T21:52:01.576Z,9.41
2017-12-23T21:54:29.330Z,9.44
2017-12-23T21:56:57.060Z,9.47
2017-12-23T21:59:24.744Z,9.44
2017-12-23T22:01:52.457Z,9.41
2017-12-23T22:04:20.135Z,9.43
2017-12-23T22:06:47.848Z,9.43
2017-12-23T22:09:17.319Z,9.43
2017-12-23T22:11:45.055Z,9.42
2017-12-23T22:14:12.796Z,9.42
2017-12-23T22:16:40.502Z,9.42
2017-12-23T22:19:08.186Z,9.44
2017-12-23T22:21:35.871Z,9.45
2017-12-23T22:24:03.595Z,9.47
2017-12-23T22:26:31.288Z,9.45
2017-12-23T22:28:59.068Z,9.42
2017-12-23T22:31:26.831Z,9.49
2017-12-23T22:33:54.615Z,9.43
2017-12-23T22:36:22.358Z,9.44
2017-12-23T22:38:50.123Z,9.41
2017-12-23T22:41:17.847Z,9.41
2017-12-23T22:43:45.645Z,9.46
2017-12-23T22:46:13.398Z,9.47
2017-12-23T22:48:41.131Z,9.44
2017-12-23T22:51:08.857Z,9.51
2017-12-23T22:53:36.698Z,9.46
2017-12-23T22:56:04.446Z,9.42
2017-12-23T22:58:32.200Z,9.40
2017-12-23T23:00:59.946Z,9.47
2017-12-23T23:03:27.771Z,9.43
2017-12-23T23:05:55.521Z,9.43
2017-12-23T23:08:23.300Z,9.43
2017-12-23T23:10:51.925Z,9.41
2017-12-23T23:13:19.676Z,9.38
2017-12-23T23:15:47.355Z,9.37
2017-12-23T23:18:15.133Z,9.38
2017-12-23T23:20:42.866Z,9.36
2017-12-23T23:23:10.682Z,9.35
2017-12-23T23:25:38.414Z,9.39
2017-12-23T23:28:06.135Z,9.38
2017-12-23T23:30:33.864Z,9.41
2017-12-23T23:33:01.585Z,9.37
2017-12-23T23:35:29.327Z,9.38
2017-12-23T23:37:57.064Z,9.37
2017-12-23T23:40:24.747Z,9.36
2017-12-23T23:42:52.523Z,9.34
2017-12-23T23:45:20.242Z,9.37
2017-12-23T23:47:47.919Z,9.35
2017-12-23T23:50:15.650Z,9.31
2017-12-23T23:52:43.390Z,9.32
2017-12-23T23:55:11.105Z,9.31
2017-12-23T23:57:38.769Z,9.34
